createdAt,value
2022-09-02T00:01:24.880Z,96146.31
2022-09-02T00:03:55.114Z,96145.69
2022-09-02T00:06:21.707Z,96150.53
2022-09-02T00:08:48.271Z,96155.81
2022-09-02T00:11:18.268Z,96151.75
2022-09-02T00:13:45.757Z,96150.72
2022-09-02T00:16:12.780Z,96149.28
2022-09-02T00:18:44.930Z,96149.47
2022-09-02T00:21:14.278Z,96150.88
2022-09-02T00:23:42.549Z,96142.75
2022-09-02T00:26:09.677Z,96138.31
2022-09-02T00:28:36.538Z,96146.59
2022-09-02T00:31:03.142Z,96144.72
2022-09-02T00:33:31.624Z,96143.44
2022-09-02T00:36:04.608Z,96144.22
2022-09-02T00:38:35.626Z,96148.66
2022-09-02T00:41:05.905Z,96141.97
2022-09-02T00:43:55.626Z,96137.47
2022-09-02T00:46:25.138Z,96144.22
2022-09-02T00:49:16.210Z,96140.56
2022-09-02T00:52:05.687Z,96138.50
2022-09-02T00:54:34.840Z,96128.25
2022-09-02T00:57:01.836Z,96134.91
2022-09-02T00:59:40.572Z,96129.63
2022-09-02T01:02:08.293Z,96131.38
2022-09-02T01:04:35.408Z,96128.13
2022-09-02T01:07:03.381Z,96130.75
2022-09-02T01:09:33.428Z,96134.94
2022-09-02T01:12:03.175Z,96127.22
2022-09-02T01:14:30.468Z,96141.81
2022-09-02T01:17:02.746Z,96148.47
2022-09-02T01:19:36.737Z,96141.56
2022-09-02T01:22:06.515Z,96135.91
2022-09-02T01:24:34.781Z,96136.28
2022-09-02T01:27:01.491Z,96138.47
2022-09-02T01:29:29.266Z,96140.84
2022-09-02T01:31:56.062Z,96136.38
2022-09-02T01:34:22.921Z,96139.19
2022-09-02T01:36:49.698Z,96132.69
2022-09-02T01:39:16.742Z,96132.69
2022-09-02T01:41:43.580Z,96137.50
2022-09-02T01:44:10.757Z,96133.03
2022-09-02T01:46:37.758Z,96132.88
2022-09-02T01:49:05.095Z,96138.50
2022-09-02T01:51:31.944Z,96137.25
2022-09-02T01:53:58.636Z,96131.72
2022-09-02T01:56:25.261Z,96136.16
2022-09-02T01:58:51.813Z,96134.34
2022-09-02T02:01:19.532Z,96136.53
2022-09-02T02:03:46.348Z,96131.81
2022-09-02T02:06:16.538Z,96134.81
2022-09-02T02:08:44.276Z,96133.97
2022-09-02T02:11:11.345Z,96141.28
2022-09-02T02:13:38.697Z,96130.75
2022-09-02T02:16:06.353Z,96134.53
2022-09-02T02:18:33.070Z,96130.28
2022-09-02T02:20:59.656Z,96128.25
2022-09-02T02:23:26.248Z,96133.91
2022-09-02T02:25:52.931Z,96136.16
2022-09-02T02:28:19.593Z,96131.72
2022-09-02T02:30:46.346Z,96134.75
2022-09-02T02:33:13.637Z,96138.38
2022-09-02T02:35:41.335Z,96122.91
2022-09-02T02:38:08.524Z,96129.75
2022-09-02T02:40:35.230Z,96121.59
2022-09-02T02:43:01.904Z,96126.75
2022-09-02T02:45:29.633Z,96121.03
2022-09-02T02:47:56.221Z,96123.03
2022-09-02T02:50:23.585Z,96128.31
2022-09-02T02:52:50.942Z,96120.75
2022-09-02T02:55:17.963Z,96120.47
2022-09-02T02:57:44.979Z,96123.94
2022-09-02T03:00:13.975Z,96117.84
2022-09-02T03:02:40.940Z,96111.34
2022-09-02T03:05:09.979Z,96115.13
2022-09-02T03:07:36.545Z,96118.31
2022-09-02T03:10:08.328Z,96114.22
2022-09-02T03:12:37.273Z,96111.75
2022-09-02T03:15:04.804Z,96113.75
2022-09-02T03:17:31.530Z,96105.59
2022-09-02T03:19:59.198Z,96120.94
2022-09-02T03:22:27.714Z,96115.50
2022-09-02T03:24:54.506Z,96118.28
2022-09-02T03:27:21.090Z,96114.50
2022-09-02T03:29:47.682Z,96113.84
2022-09-02T03:32:14.857Z,96105.69
2022-09-02T03:34:42.438Z,96113.94
2022-09-02T03:37:09.445Z,96110.84
2022-09-02T03:39:38.510Z,96114.03
2022-09-02T03:42:05.641Z,96120.28
2022-09-02T03:44:34.287Z,96120.66
2022-09-02T03:47:01.057Z,96127.25
2022-09-02T03:49:28.286Z,96118.75
2022-09-02T03:51:55.131Z,96123.38
2022-09-02T03:54:21.751Z,96129.09
2022-09-02T03:56:48.717Z,96132.53
2022-09-02T03:59:15.294Z,96125.81
2022-09-02T04:01:42.331Z,96134.19
2022-09-02T04:04:09.080Z,96128.19
2022-09-02T04:06:35.898Z,96129.38
2022-09-02T04:09:03.281Z,96129.88
2022-09-02T04:11:30.162Z,96130.25
2022-09-02T04:13:56.803Z,96127.97
2022-09-02T04:16:31.687Z,96134.53
2022-09-02T04:19:02.025Z,96135.09
2022-09-02T04:21:31.938Z,96142.63
2022-09-02T04:23:58.480Z,96135.00
2022-09-02T04:26:25.026Z,96136.81
2022-09-02T04:28:52.004Z,96138.09
2022-09-02T04:31:20.953Z,96141.66
2022-09-02T04:33:48.595Z,96142.56
2022-09-02T04:36:18.539Z,96149.56
2022-09-02T04:38:47.808Z,96145.56
2022-09-02T04:41:22.893Z,96140.31
2022-09-02T04:43:51.439Z,96144.66
2022-09-02T04:46:19.039Z,96136.75
2022-09-02T04:48:55.084Z,96141.00
2022-09-02T04:51:25.293Z,96148.28
2022-09-02T04:53:53.487Z,96134.50
2022-09-02T04:56:25.592Z,96141.75
2022-09-02T04:58:53.297Z,96146.00
2022-09-02T05:01:26.111Z,96143.38
2022-09-02T05:03:54.114Z,96141.38
2022-09-02T05:06:23.854Z,96136.13
2022-09-02T05:08:50.583Z,96141.84
2022-09-02T05:11:20.370Z,96141.28
2022-09-02T05:13:54.315Z,96134.03
2022-09-02T05:16:27.749Z,96138.94
2022-09-02T05:18:54.765Z,96135.13
2022-09-02T05:21:23.152Z,96133.13
2022-09-02T05:23:54.489Z,96131.75
2022-09-02T05:26:22.138Z,96134.84
2022-09-02T05:28:48.698Z,96128.84
2022-09-02T05:31:17.936Z,96123.22
2022-09-02T05:33:45.352Z,96124.50
2022-09-02T05:36:19.145Z,96123.09
2022-09-02T05:38:45.895Z,96127.84
2022-09-02T05:41:16.071Z,96121.00
2022-09-02T05:43:48.363Z,96127.53
2022-09-02T05:46:17.998Z,96126.44
2022-09-02T05:49:04.261Z,96125.69
2022-09-02T05:51:30.935Z,96122.94
2022-09-02T05:53:59.257Z,96114.09
2022-09-02T05:56:27.596Z,96115.78
2022-09-02T05:58:58.827Z,96114.66
2022-09-02T06:01:27.318Z,96113.75
2022-09-02T06:03:53.852Z,96109.16
2022-09-02T06:06:22.994Z,96109.03
2022-09-02T06:08:49.736Z,96109.28
2022-09-02T06:11:18.087Z,96111.78
2022-09-02T06:13:44.861Z,96110.63
2022-09-02T06:16:15.269Z,96104.22
2022-09-02T06:18:42.660Z,96099.41
2022-09-02T06:21:09.806Z,96098.47
2022-09-02T06:23:39.109Z,96103.25
2022-09-02T06:26:09.712Z,96098.63
2022-09-02T06:28:36.716Z,96101.94
2022-09-02T06:31:13.290Z,96093.44
2022-09-02T06:33:39.925Z,96109.19
2022-09-02T06:36:08.162Z,96100.28
2022-09-02T06:38:45.964Z,96108.88
2022-09-02T06:41:19.730Z,96109.50
2022-09-02T06:43:46.427Z,96109.97
2022-09-02T06:46:22.228Z,96105.72
2022-09-02T06:48:50.260Z,96090.28
2022-09-02T06:51:22.432Z,96100.09
2022-09-02T06:53:48.996Z,96095.63
2022-09-02T06:56:15.821Z,96091.78
2022-09-02T06:58:42.477Z,96091.78
2022-09-02T07:01:17.103Z,96095.69
2022-09-02T07:04:02.100Z,96099.16
2022-09-02T07:06:28.727Z,96096.50
2022-09-02T07:08:55.246Z,96092.63
2022-09-02T07:11:23.985Z,96091.56
2022-09-02T07:13:50.977Z,96092.66
2022-09-02T07:16:22.713Z,96082.38
2022-09-02T07:18:53.715Z,96085.81
2022-09-02T07:21:20.463Z,96079.03
2022-09-02T07:23:47.051Z,96078.81
2022-09-02T07:26:15.544Z,96075.03
2022-09-02T07:28:43.247Z,96069.38
2022-09-02T07:31:16.002Z,96076.53
2022-09-02T07:33:45.084Z,96073.91
2022-09-02T07:36:16.754Z,96082.59
2022-09-02T07:38:43.355Z,96073.28
2022-09-02T07:41:10.694Z,96071.03
2022-09-02T07:43:38.756Z,96074.41
2022-09-02T07:46:06.152Z,96077.72
2022-09-02T07:48:33.967Z,96076.97
2022-09-02T07:51:01.153Z,96075.56
2022-09-02T07:53:28.422Z,96077.78
2022-09-02T07:55:55.040Z,96071.44
2022-09-02T07:58:22.633Z,96065.66
2022-09-02T08:00:50.133Z,96073.34
2022-09-02T08:03:17.719Z,96077.63
2022-09-02T08:05:47.144Z,96073.84
2022-09-02T08:08:16.726Z,96072.69
2022-09-02T08:10:43.344Z,96070.94
2022-09-02T08:13:10.608Z,96072.25
2022-09-02T08:15:39.001Z,96072.13
2022-09-02T08:18:07.298Z,96068.38
2022-09-02T08:20:35.612Z,96073.38
2022-09-02T08:23:11.141Z,96058.50
2022-09-02T08:25:39.104Z,96064.06
2022-09-02T08:28:05.825Z,96058.81
2022-09-02T08:30:32.676Z,96061.16
2022-09-02T08:32:59.885Z,96064.81
2022-09-02T08:35:26.646Z,96062.16
2022-09-02T08:37:53.293Z,96049.47
2022-09-02T08:40:23.418Z,96053.97
2022-09-02T08:42:53.469Z,96064.75
2022-09-02T08:45:32.512Z,96057.16
2022-09-02T08:48:04.748Z,96056.44
2022-09-02T08:50:33.027Z,96051.28
2022-09-02T08:53:03.728Z,96056.50
2022-09-02T08:55:44.455Z,96056.25
2022-09-02T08:58:17.020Z,96054.38
2022-09-02T09:00:46.187Z,96058.44
2022-09-02T09:03:28.660Z,96051.00
2022-09-02T09:06:19.587Z,96060.72
2022-09-02T09:09:00.298Z,96050.34
2022-09-02T09:11:49.063Z,96051.25
2022-09-02T09:14:45.247Z,96058.44
2022-09-02T09:17:28.768Z,96049.72
2022-09-02T09:20:00.618Z,96042.56
2022-09-02T09:22:37.440Z,96047.75
2022-09-02T09:25:11.670Z,96045.25
2022-09-02T09:27:38.504Z,96042.97
2022-09-02T09:30:10.482Z,96056.22
2022-09-02T09:32:46.460Z,96053.28
2022-09-02T09:35:17.969Z,96052.13
2022-09-02T09:37:48.121Z,96052.13
2022-09-02T09:40:23.353Z,96056.66
2022-09-02T09:43:14.694Z,96060.41
2022-09-02T09:45:50.058Z,96051.81
2022-09-02T09:48:16.621Z,96043.78
2022-09-02T09:50:45.396Z,96053.53
2022-09-02T09:53:22.829Z,96038.63
2022-09-02T09:56:04.115Z,96038.44
2022-09-02T09:58:39.649Z,96034.53
2022-09-02T10:01:18.618Z,96037.38
2022-09-02T10:04:12.216Z,96042.88
2022-09-02T10:06:48.925Z,96028.25
2022-09-02T10:09:15.461Z,96031.78
2022-09-02T10:12:01.722Z,96022.19
2022-09-02T10:14:58.034Z,96033.47
2022-09-02T10:17:57.979Z,96025.44
2022-09-02T10:21:04.906Z,96026.00
2022-09-02T10:24:27.175Z,96026.84
2022-09-02T10:26:57.436Z,96025.06
2022-09-02T10:29:42.111Z,96022.38
2022-09-02T10:32:27.552Z,96021.34
2022-09-02T10:35:15.988Z,96017.59
2022-09-02T10:38:01.876Z,96023.78
2022-09-02T10:40:41.717Z,96022.94
2022-09-02T10:43:11.852Z,96026.19
2022-09-02T10:45:51.128Z,96019.69
2022-09-02T10:48:35.904Z,96022.63
2022-09-02T10:51:37.430Z,96031.44
2022-09-02T10:54:10.925Z,96028.25
2022-09-02T10:56:52.457Z,96034.16
2022-09-02T10:59:26.826Z,96030.41
2022-09-02T11:02:08.351Z,96034.69
2022-09-02T11:04:56.758Z,96030.88
2022-09-02T11:07:34.237Z,96026.84
2022-09-02T11:10:09.234Z,96029.25
2022-09-02T11:12:45.454Z,96022.56
2022-09-02T11:15:18.930Z,96024.75
2022-09-02T11:18:04.990Z,96016.47
2022-09-02T11:20:50.848Z,96020.28
2022-09-02T11:23:29.104Z,96012.78
2022-09-02T11:26:04.974Z,96006.88
2022-09-02T11:28:40.575Z,96012.03
2022-09-02T11:31:19.194Z,96006.47
2022-09-02T11:33:55.520Z,96009.31
2022-09-02T11:36:22.722Z,95998.78
2022-09-02T11:38:58.952Z,96012.00
2022-09-02T11:41:38.035Z,96015.47
2022-09-02T11:44:11.331Z,96013.06
2022-09-02T11:46:49.249Z,96004.28
2022-09-02T11:49:34.275Z,96010.69
2022-09-02T11:52:19.557Z,95999.41
2022-09-02T11:54:49.154Z,96006.66
2022-09-02T11:57:23.052Z,96002.63
2022-09-02T11:59:52.448Z,96003.19
2022-09-02T12:02:36.256Z,96010.16
2022-09-02T12:05:29.897Z,96002.13
2022-09-02T12:08:04.991Z,95998.16
2022-09-02T12:10:42.100Z,95990.41
2022-09-02T12:13:11.398Z,95998.44
2022-09-02T12:15:40.713Z,95988.28
2022-09-02T12:18:12.169Z,95986.91
2022-09-02T12:20:38.928Z,95983.47
2022-09-02T12:23:08.232Z,95988.31
2022-09-02T12:25:47.367Z,95992.63
2022-09-02T12:28:19.206Z,95983.75
2022-09-02T12:30:56.524Z,95979.47
2022-09-02T12:33:37.664Z,95979.47
2022-09-02T12:36:06.438Z,95973.84
2022-09-02T12:38:40.026Z,95979.19
2022-09-02T12:41:13.293Z,95975.47
2022-09-02T12:43:44.667Z,95977.06
2022-09-02T12:46:17.596Z,95973.31
2022-09-02T12:49:03.242Z,95967.38
2022-09-02T12:51:57.151Z,95964.69
2022-09-02T12:54:38.581Z,95967.44
2022-09-02T12:57:07.177Z,95966.91
2022-09-02T12:59:37.477Z,95965.31
2022-09-02T13:02:30.257Z,95970.19
2022-09-02T13:05:16.144Z,95971.22
2022-09-02T13:07:46.636Z,95960.22
2022-09-02T13:10:50.570Z,95955.63
2022-09-02T13:13:35.274Z,95958.56
2022-09-02T13:16:19.000Z,95959.69
2022-09-02T13:19:20.323Z,95953.28
2022-09-02T13:22:14.618Z,95960.53
2022-09-02T13:25:00.010Z,95955.75
2022-09-02T13:27:45.080Z,95951.75
2022-09-02T13:30:19.536Z,95953.34
2022-09-02T13:32:56.631Z,95949.81
2022-09-02T13:35:28.349Z,95950.84
2022-09-02T13:37:59.810Z,95943.84
2022-09-02T13:40:35.528Z,95955.13
2022-09-02T13:43:24.039Z,95948.72
2022-09-02T13:45:52.827Z,95954.88
2022-09-02T13:48:22.964Z,95943.84
2022-09-02T13:50:52.596Z,95948.72
2022-09-02T13:56:25.611Z,95945.50
2022-09-02T13:58:56.736Z,95946.75
2022-09-02T14:01:33.175Z,95943.25
2022-09-02T14:06:37.294Z,95949.13
2022-09-02T14:09:07.753Z,95949.09
2022-09-02T14:11:46.366Z,95953.41
2022-09-02T14:14:18.636Z,95947.53
2022-09-02T14:16:45.275Z,95946.72
2022-09-02T14:19:24.641Z,95950.22
2022-09-02T14:21:52.778Z,95947.00
2022-09-02T14:24:23.887Z,95942.72
2022-09-02T14:26:53.656Z,95955.59
2022-09-02T14:29:21.599Z,95962.03
2022-09-02T14:32:23.146Z,95946.63
2022-09-02T14:35:09.202Z,95947.97
2022-09-02T14:37:55.946Z,95946.06
2022-09-02T14:40:37.860Z,95946.03
2022-09-02T14:43:10.922Z,95954.03
2022-09-02T14:45:37.701Z,95950.00
2022-09-02T14:48:16.105Z,95946.75
2022-09-02T14:50:43.255Z,95960.16
2022-09-02T14:53:10.929Z,95952.63
2022-09-02T14:55:55.164Z,95954.75
2022-09-02T14:58:26.858Z,95949.41
2022-09-02T15:00:55.962Z,95947.22
2022-09-02T15:03:23.669Z,95947.75
2022-09-02T15:05:52.384Z,95952.63
2022-09-02T15:08:19.570Z,95943.78
2022-09-02T15:10:46.641Z,95944.84
2022-09-02T15:13:26.295Z,95941.91
2022-09-02T15:15:53.223Z,95941.59
2022-09-02T15:18:19.843Z,95941.00
2022-09-02T15:20:46.429Z,95938.84
2022-09-02T15:23:12.954Z,95947.16
2022-09-02T15:25:39.859Z,95948.69
2022-09-02T15:28:06.459Z,95956.75
2022-09-02T15:30:36.687Z,95946.03
2022-09-02T15:33:04.702Z,95955.94
2022-09-02T15:35:35.059Z,95954.31
2022-09-02T15:38:03.225Z,95954.06
2022-09-02T15:40:31.726Z,95957.56
2022-09-02T15:43:00.079Z,95957.56
2022-09-02T15:45:28.144Z,95951.38
2022-09-02T15:47:58.528Z,95960.97
2022-09-02T15:50:26.276Z,95960.97
2022-09-02T15:52:56.025Z,95954.00
2022-09-02T15:55:29.168Z,95952.94
2022-09-02T15:57:56.511Z,95949.22
2022-09-02T16:00:23.491Z,95950.78
2022-09-02T16:02:54.530Z,95944.28
2022-09-02T16:05:21.404Z,95948.56
2022-09-02T16:07:48.620Z,95948.81
2022-09-02T16:10:15.302Z,95952.00
2022-09-02T16:12:42.204Z,95951.19
2022-09-02T16:15:09.217Z,95946.31
2022-09-02T16:17:36.090Z,95948.13
2022-09-02T16:20:04.092Z,95939.53
2022-09-02T16:22:30.737Z,95939.22
2022-09-02T16:24:57.268Z,95930.63
2022-09-02T16:27:43.755Z,95939.78
2022-09-02T16:30:10.775Z,95939.28
2022-09-02T16:32:37.893Z,95938.47
2022-09-02T16:35:04.727Z,95939.78
2022-09-02T16:37:31.302Z,95937.63
2022-09-02T16:39:57.940Z,95935.19
2022-09-02T16:42:24.667Z,95941.59
2022-09-02T16:44:51.855Z,95940.00
2022-09-02T16:47:18.641Z,95936.50
2022-09-02T16:49:46.474Z,95938.28
2022-09-02T16:52:13.559Z,95938.53
2022-09-02T16:54:41.264Z,95933.19
2022-09-02T16:57:08.143Z,95941.72
2022-09-02T16:59:34.763Z,95937.13
2022-09-02T17:02:01.533Z,95941.66
2022-09-02T17:04:28.161Z,95939.44
2022-09-02T17:06:56.535Z,95937.25
2022-09-02T17:09:23.057Z,95935.13
2022-09-02T17:11:49.578Z,95933.00
2022-09-02T17:14:17.984Z,95937.88
2022-09-02T17:16:47.598Z,95927.34
2022-09-02T17:19:20.959Z,95928.34
2022-09-02T17:21:50.936Z,95935.19
2022-09-02T17:24:18.829Z,95942.34
2022-09-02T17:26:48.424Z,95939.09
2022-09-02T17:29:46.773Z,95936.41
2022-09-02T17:32:04.777Z,95935.88
2022-09-02T17:34:33.687Z,95934.47
2022-09-02T17:37:00.357Z,95939.59
2022-09-02T17:39:27.014Z,95937.63
2022-09-02T17:41:57.617Z,95938.94
2022-09-02T17:44:27.202Z,95946.97
2022-09-02T17:46:55.932Z,95945.28
2022-09-02T17:49:22.812Z,95946.34
2022-09-02T17:51:49.648Z,95952.66
2022-09-02T17:54:16.289Z,95952.66
2022-09-02T17:57:00.880Z,95957.78
2022-09-02T17:59:32.475Z,95946.50
2022-09-02T18:02:36.346Z,95946.75
2022-09-02T18:05:21.688Z,95943.50
2022-09-02T18:08:03.422Z,95946.69
2022-09-02T18:10:33.606Z,95950.09
2022-09-02T18:13:09.509Z,95945.25
2022-09-02T18:15:58.982Z,95950.66
2022-09-02T18:18:28.113Z,95942.09
2022-09-02T18:21:04.027Z,95942.41
2022-09-02T18:24:21.155Z,95947.44
2022-09-02T18:26:56.710Z,95946.38
2022-09-02T18:29:46.400Z,95948.09
2022-09-02T18:32:40.899Z,95951.88
2022-09-02T18:35:35.018Z,95950.28
2022-09-02T18:38:28.537Z,95951.22
2022-09-02T18:41:11.102Z,95955.53
2022-09-02T18:43:59.444Z,95949.06
2022-09-02T18:46:33.168Z,95947.19
2022-09-02T18:49:03.212Z,95946.44
2022-09-02T18:51:42.453Z,95943.53
2022-09-02T18:54:23.012Z,95954.41
2022-09-02T18:56:57.397Z,95948.06
2022-09-02T18:59:34.056Z,95945.66
2022-09-02T19:02:15.633Z,95955.78
2022-09-02T19:04:42.623Z,95949.63
2022-09-02T19:07:30.212Z,95950.69
2022-09-02T19:10:01.092Z,95955.22
2022-09-02T19:12:32.702Z,95950.84
2022-09-02T19:15:00.800Z,95955.63
2022-09-02T19:17:27.383Z,95956.59
2022-09-02T19:19:54.053Z,95951.75
2022-09-02T19:22:27.094Z,95955.94
2022-09-02T19:25:02.997Z,95952.69
2022-09-02T19:27:33.673Z,95947.09
2022-09-02T19:30:14.828Z,95962.09
2022-09-02T19:32:48.108Z,95955.69
2022-09-02T19:35:18.302Z,95960.72
2022-09-02T19:37:51.417Z,95955.53
2022-09-02T19:40:28.608Z,95957.28
2022-09-02T19:42:55.592Z,95958.13
2022-09-02T19:45:23.084Z,95957.88
2022-09-02T19:48:06.659Z,95959.00
2022-09-02T19:50:36.202Z,95957.13
2022-09-02T19:53:02.893Z,95958.44
2022-09-02T19:55:29.859Z,95958.94
2022-09-02T19:57:56.420Z,95957.28
2022-09-02T20:00:23.082Z,95953.59
2022-09-02T20:02:51.130Z,95956.81
2022-09-02T20:05:18.035Z,95953.34
2022-09-02T20:07:44.594Z,95957.94
2022-09-02T20:10:11.569Z,95960.72
2022-09-02T20:12:38.228Z,95959.59
2022-09-02T20:15:06.824Z,95957.00
2022-09-02T20:17:33.427Z,95945.50
2022-09-02T20:20:08.582Z,95948.41
2022-09-02T20:22:35.279Z,95939.31
2022-09-02T20:25:01.865Z,95944.59
2022-09-02T20:27:47.387Z,95942.16
2022-09-02T20:30:16.380Z,95943.22
2022-09-02T20:32:59.523Z,95946.22
2022-09-02T20:35:44.544Z,95942.50
2022-09-02T20:38:29.924Z,95948.78
2022-09-02T20:41:19.666Z,95950.50
2022-09-02T20:44:06.668Z,95943.06
2022-09-02T20:46:58.908Z,95946.84
2022-09-02T20:49:35.257Z,95958.97
2022-09-02T20:52:20.451Z,95952.38
2022-09-02T20:54:54.868Z,95951.94
2022-09-02T20:58:19.315Z,95952.56
2022-09-02T21:01:08.562Z,95948.41
2022-09-02T21:03:59.305Z,95947.16
2022-09-02T21:06:30.441Z,95943.22
2022-09-02T21:09:05.079Z,95953.22
2022-09-02T21:11:40.804Z,95950.56
2022-09-02T21:14:16.227Z,95948.28
2022-09-02T21:17:05.574Z,95951.28
2022-09-02T21:19:39.605Z,95949.53
2022-09-02T21:22:22.895Z,95941.63
2022-09-02T21:25:06.688Z,95939.88
2022-09-02T21:27:37.822Z,95948.81
2022-09-02T21:30:08.445Z,95946.41
2022-09-02T21:33:02.281Z,95954.63
2022-09-02T21:35:35.661Z,95955.53
2022-09-02T21:38:04.660Z,95949.25
2022-09-02T21:41:05.827Z,95948.22
2022-09-02T21:43:35.245Z,95952.75
2022-09-02T21:46:28.871Z,95941.84
2022-09-02T21:49:12.833Z,95955.19
2022-09-02T21:51:53.055Z,95951.25
2022-09-02T21:54:25.574Z,95946.59
2022-09-02T21:57:01.116Z,95943.69
2022-09-02T21:59:49.666Z,95945.31
2022-09-02T22:02:25.819Z,95948.69
2022-09-02T22:05:06.215Z,95941.50
2022-09-02T22:07:55.576Z,95939.88
2022-09-02T22:11:17.694Z,95933.75
2022-09-02T22:13:45.446Z,95938.72
2022-09-02T22:16:46.588Z,95936.41
2022-09-02T22:19:13.625Z,95938.16
2022-09-02T22:21:48.878Z,95940.47
2022-09-02T22:24:27.467Z,95938.53
2022-09-02T22:27:13.067Z,95931.66
2022-09-02T22:29:50.126Z,95930.16
2022-09-02T22:32:20.491Z,95921.22
2022-09-02T22:34:59.815Z,95926.69
2022-09-02T22:37:38.650Z,95930.50
2022-09-02T22:40:09.923Z,95917.28
2022-09-02T22:42:39.315Z,95914.63
2022-09-02T22:45:31.635Z,95907.19
2022-09-02T22:48:53.523Z,95912.06
2022-09-02T22:51:47.686Z,95910.59
2022-09-02T22:54:14.263Z,95900.59
2022-09-02T22:56:49.979Z,95900.59
2022-09-02T22:59:29.394Z,95894.94
2022-09-02T23:02:05.852Z,95895.28
2022-09-02T23:05:30.798Z,95883.53
2022-09-02T23:07:57.318Z,95883.53
2022-09-02T23:10:26.968Z,95880.41
2022-09-02T23:13:14.143Z,95882.38
2022-09-02T23:15:55.255Z,95886.66
2022-09-02T23:18:29.662Z,95882.47
2022-09-02T23:21:05.051Z,95883.84
2022-09-02T23:23:40.031Z,95893.25
2022-09-02T23:26:16.657Z,95888.84
2022-09-02T23:29:14.606Z,95888.13
2022-09-02T23:32:25.718Z,95890.53
2022-09-02T23:35:04.221Z,95879.63
2022-09-02T23:37:36.575Z,95880.34
2022-09-02T23:40:14.984Z,95880.94
2022-09-02T23:42:41.606Z,95879.88
2022-09-02T23:45:32.844Z,95881.13
2022-09-02T23:48:11.564Z,95879.78
2022-09-02T23:50:47.141Z,95878.25
2022-09-02T23:53:30.108Z,95872.81
2022-09-02T23:56:33.596Z,95871.78
2022-09-02T23:59:15.140Z,95871.19
